sensor_id;sensor_type;location;lat;lon;timestamp;temperature;humidity
15386;DHT22;7791;47.246;9.648;2022-11-15T00:00:49;2.80;99.90
15386;DHT22;7791;47.246;9.648;2022-11-15T00:03:18;2.70;99.90
15386;DHT22;7791;47.246;9.648;2022-11-15T00:05:46;2.70;99.90
15386;DHT22;7791;47.246;9.648;2022-11-15T00:08:14;2.80;99.90
15386;DHT22;7791;47.246;9.648;2022-11-15T00:10:41;2.80;99.90
15386;DHT22;7791;47.246;9.648;2022-11-15T00:13:12;3.00;99.90
15386;DHT22;7791;47.246;9.648;2022-11-15T00:15:39;3.10;99.90
15386;DHT22;7791;47.246;9.648;2022-11-15T00:18:09;3.10;99.90
15386;DHT22;7791;47.246;9.648;2022-11-15T00:20:40;2.70;99.90
15386;DHT22;7791;47.246;9.648;2022-11-15T00:23:07;2.60;99.90
15386;DHT22;7791;47.246;9.648;2022-11-15T00:25:33;2.60;99.90
15386;DHT22;7791;47.246;9.648;2022-11-15T00:28:01;2.60;99.90
15386;DHT22;7791;47.246;9.648;2022-11-15T00:30:28;2.60;99.90
15386;DHT22;7791;47.246;9.648;2022-11-15T00:32:56;2.60;99.90
15386;DHT22;7791;47.246;9.648;2022-11-15T00:35:27;2.70;99.90
15386;DHT22;7791;47.246;9.648;2022-11-15T00:37:53;2.70;99.90
15386;DHT22;7791;47.246;9.648;2022-11-15T00:40:21;2.70;99.90
15386;DHT22;7791;47.246;9.648;2022-11-15T00:42:47;2.80;99.90
15386;DHT22;7791;47.246;9.648;2022-11-15T00:45:13;2.80;99.90
15386;DHT22;7791;47.246;9.648;2022-11-15T00:47:43;2.70;99.90
15386;DHT22;7791;47.246;9.648;2022-11-15T00:50:10;2.60;99.90
15386;DHT22;7791;47.246;9.648;2022-11-15T00:52:37;2.50;99.90
15386;DHT22;7791;47.246;9.648;2022-11-15T00:55:04;2.40;99.90
15386;DHT22;7791;47.246;9.648;2022-11-15T00:57:31;2.30;99.90
15386;DHT22;7791;47.246;9.648;2022-11-15T00:59:59;2.30;99.90
15386;DHT22;7791;47.246;9.648;2022-11-15T01:02:24;2.30;99.90
15386;DHT22;7791;47.246;9.648;2022-11-15T01:04:53;2.30;99.90
15386;DHT22;7791;47.246;9.648;2022-11-15T01:07:21;2.20;99.90
15386;DHT22;7791;47.246;9.648;2022-11-15T01:09:52;2.20;99.90
15386;DHT22;7791;47.246;9.648;2022-11-15T01:12:23;2.20;99.90
15386;DHT22;7791;47.246;9.648;2022-11-15T01:14:49;2.20;99.90
15386;DHT22;7791;47.246;9.648;2022-11-15T01:17:15;2.20;99.90
15386;DHT22;7791;47.246;9.648;2022-11-15T01:19:41;2.20;99.90
15386;DHT22;7791;47.246;9.648;2022-11-15T01:22:08;2.20;99.90
15386;DHT22;7791;47.246;9.648;2022-11-15T01:24:36;2.10;99.90
15386;DHT22;7791;47.246;9.648;2022-11-15T01:27:02;2.10;99.90
15386;DHT22;7791;47.246;9.648;2022-11-15T01:29:32;2.10;99.90
15386;DHT22;7791;47.246;9.648;2022-11-15T01:32:02;2.20;99.90
15386;DHT22;7791;47.246;9.648;2022-11-15T01:34:28;2.20;99.90
15386;DHT22;7791;47.246;9.648;2022-11-15T01:36:56;2.20;99.90
15386;DHT22;7791;47.246;9.648;2022-11-15T01:39:24;2.20;99.90
15386;DHT22;7791;47.246;9.648;2022-11-15T01:41:50;2.10;99.90
15386;DHT22;7791;47.246;9.648;2022-11-15T01:44:40;2.00;99.90
15386;DHT22;7791;47.246;9.648;2022-11-15T01:47:11;1.90;99.90
15386;DHT22;7791;47.246;9.648;2022-11-15T01:49:46;1.80;99.90
15386;DHT22;7791;47.246;9.648;2022-11-15T01:52:18;1.80;99.90
15386;DHT22;7791;47.246;9.648;2022-11-15T01:54:50;1.80;99.90
15386;DHT22;7791;47.246;9.648;2022-11-15T01:57:20;1.90;99.90
15386;DHT22;7791;47.246;9.648;2022-11-15T01:59:47;1.80;99.90
15386;DHT22;7791;47.246;9.648;2022-11-15T02:02:16;1.80;99.90
15386;DHT22;7791;47.246;9.648;2022-11-15T02:04:44;1.80;99.90
15386;DHT22;7791;47.246;9.648;2022-11-15T02:07:13;1.90;99.90
15386;DHT22;7791;47.246;9.648;2022-11-15T02:09:45;2.00;99.90
15386;DHT22;7791;47.246;9.648;2022-11-15T02:12:15;2.00;99.90
15386;DHT22;7791;47.246;9.648;2022-11-15T02:14:44;2.00;99.90
15386;DHT22;7791;47.246;9.648;2022-11-15T02:17:26;2.10;99.90
15386;DHT22;7791;47.246;9.648;2022-11-15T02:23:12;2.30;99.90
15386;DHT22;7791;47.246;9.648;2022-11-15T02:25:55;2.40;99.90
15386;DHT22;7791;47.246;9.648;2022-11-15T02:28:44;2.50;99.90
15386;DHT22;7791;47.246;9.648;2022-11-15T02:31:19;2.50;99.90
15386;DHT22;7791;47.246;9.648;2022-11-15T02:33:54;2.70;99.90
15386;DHT22;7791;47.246;9.648;2022-11-15T02:36:34;2.70;99.90
15386;DHT22;7791;47.246;9.648;2022-11-15T02:39:07;2.60;99.90
15386;DHT22;7791;47.246;9.648;2022-11-15T02:41:44;2.60;99.90
15386;DHT22;7791;47.246;9.648;2022-11-15T02:44:16;2.40;99.90
15386;DHT22;7791;47.246;9.648;2022-11-15T02:46:48;2.40;99.90
15386;DHT22;7791;47.246;9.648;2022-11-15T02:49:18;2.30;99.90
15386;DHT22;7791;47.246;9.648;2022-11-15T02:51:47;2.30;99.90
15386;DHT22;7791;47.246;9.648;2022-11-15T02:54:21;2.30;99.90
15386;DHT22;7791;47.246;9.648;2022-11-15T02:56:50;2.20;99.90
15386;DHT22;7791;47.246;9.648;2022-11-15T03:02:35;2.20;99.90
15386;DHT22;7791;47.246;9.648;2022-11-15T03:05:14;2.20;99.90
15386;DHT22;7791;47.246;9.648;2022-11-15T03:07:52;2.20;99.90
15386;DHT22;7791;47.246;9.648;2022-11-15T03:10:24;2.20;99.90
15386;DHT22;7791;47.246;9.648;2022-11-15T03:12:55;2.20;99.90
15386;DHT22;7791;47.246;9.648;2022-11-15T03:15:26;2.10;99.90
15386;DHT22;7791;47.246;9.648;2022-11-15T03:18:02;2.10;99.90
15386;DHT22;7791;47.246;9.648;2022-11-15T03:20:32;2.20;99.90
15386;DHT22;7791;47.246;9.648;2022-11-15T03:23:05;2.20;99.90
15386;DHT22;7791;47.246;9.648;2022-11-15T03:25:33;2.20;99.90
15386;DHT22;7791;47.246;9.648;2022-11-15T03:28:05;2.30;99.90
15386;DHT22;7791;47.246;9.648;2022-11-15T03:30:35;2.30;99.90
15386;DHT22;7791;47.246;9.648;2022-11-15T03:33:05;2.30;99.90
15386;DHT22;7791;47.246;9.648;2022-11-15T03:35:38;2.30;99.90
15386;DHT22;7791;47.246;9.648;2022-11-15T03:38:11;2.30;99.90
15386;DHT22;7791;47.246;9.648;2022-11-15T03:40:42;2.20;99.90
15386;DHT22;7791;47.246;9.648;2022-11-15T03:43:21;2.10;99.90
15386;DHT22;7791;47.246;9.648;2022-11-15T03:45:53;2.10;99.90
15386;DHT22;7791;47.246;9.648;2022-11-15T03:48:34;2.20;99.90
15386;DHT22;7791;47.246;9.648;2022-11-15T03:51:02;2.20;99.90
15386;DHT22;7791;47.246;9.648;2022-11-15T03:53:28;2.10;99.90
15386;DHT22;7791;47.246;9.648;2022-11-15T03:55:55;2.10;99.90
15386;DHT22;7791;47.246;9.648;2022-11-15T03:58:21;2.20;99.90
15386;DHT22;7791;47.246;9.648;2022-11-15T04:00:47;2.20;99.90
15386;DHT22;7791;47.246;9.648;2022-11-15T04:03:13;2.20;99.90
15386;DHT22;7791;47.246;9.648;2022-11-15T04:05:41;2.20;99.90
15386;DHT22;7791;47.246;9.648;2022-11-15T04:08:07;2.10;99.90
15386;DHT22;7791;47.246;9.648;2022-11-15T04:10:33;2.00;99.90
15386;DHT22;7791;47.246;9.648;2022-11-15T04:13:03;2.00;99.90
15386;DHT22;7791;47.246;9.648;2022-11-15T04:15:35;1.90;99.90
15386;DHT22;7791;47.246;9.648;2022-11-15T04:18:01;2.00;99.90
15386;DHT22;7791;47.246;9.648;2022-11-15T04:20:32;1.90;99.90
15386;DHT22;7791;47.246;9.648;2022-11-15T04:23:01;1.80;99.90
15386;DHT22;7791;47.246;9.648;2022-11-15T04:25:30;1.80;99.90
15386;DHT22;7791;47.246;9.648;2022-11-15T04:27:59;1.90;99.90
15386;DHT22;7791;47.246;9.648;2022-11-15T04:30:25;1.90;99.90
15386;DHT22;7791;47.246;9.648;2022-11-15T04:32:52;2.00;99.90
15386;DHT22;7791;47.246;9.648;2022-11-15T04:35:19;2.10;99.90
15386;DHT22;7791;47.246;9.648;2022-11-15T04:37:46;2.00;99.90
15386;DHT22;7791;47.246;9.648;2022-11-15T04:40:13;2.00;99.90
15386;DHT22;7791;47.246;9.648;2022-11-15T04:42:41;2.00;99.90
15386;DHT22;7791;47.246;9.648;2022-11-15T04:45:07;1.90;99.90
15386;DHT22;7791;47.246;9.648;2022-11-15T04:47:34;1.90;99.90
15386;DHT22;7791;47.246;9.648;2022-11-15T04:50:00;1.80;99.90
15386;DHT22;7791;47.246;9.648;2022-11-15T04:52:27;1.70;99.90
15386;DHT22;7791;47.246;9.648;2022-11-15T04:54:56;1.70;99.90
15386;DHT22;7791;47.246;9.648;2022-11-15T04:57:27;1.70;99.90
15386;DHT22;7791;47.246;9.648;2022-11-15T04:59:54;1.70;99.90
15386;DHT22;7791;47.246;9.648;2022-11-15T05:02:22;1.70;99.90
15386;DHT22;7791;47.246;9.648;2022-11-15T05:04:48;1.90;99.90
15386;DHT22;7791;47.246;9.648;2022-11-15T05:07:14;1.90;99.90
15386;DHT22;7791;47.246;9.648;2022-11-15T05:09:42;1.90;99.90
15386;DHT22;7791;47.246;9.648;2022-11-15T05:12:08;1.80;99.90
15386;DHT22;7791;47.246;9.648;2022-11-15T05:14:36;1.60;99.90
15386;DHT22;7791;47.246;9.648;2022-11-15T05:17:02;1.60;99.90
15386;DHT22;7791;47.246;9.648;2022-11-15T05:19:31;1.60;99.90
15386;DHT22;7791;47.246;9.648;2022-11-15T05:21:57;1.70;99.90
15386;DHT22;7791;47.246;9.648;2022-11-15T05:24:25;1.80;99.90
15386;DHT22;7791;47.246;9.648;2022-11-15T05:26:54;1.90;99.90
15386;DHT22;7791;47.246;9.648;2022-11-15T05:29:20;2.00;99.90
15386;DHT22;7791;47.246;9.648;2022-11-15T05:31:54;2.10;99.90
15386;DHT22;7791;47.246;9.648;2022-11-15T05:34:22;2.10;99.90
15386;DHT22;7791;47.246;9.648;2022-11-15T05:36:55;2.00;99.90
15386;DHT22;7791;47.246;9.648;2022-11-15T05:39:23;1.90;99.90
15386;DHT22;7791;47.246;9.648;2022-11-15T05:41:59;1.80;99.90
15386;DHT22;7791;47.246;9.648;2022-11-15T05:44:27;1.80;99.90
15386;DHT22;7791;47.246;9.648;2022-11-15T05:46:56;1.60;99.90
15386;DHT22;7791;47.246;9.648;2022-11-15T05:49:27;1.60;99.90
15386;DHT22;7791;47.246;9.648;2022-11-15T05:51:56;1.50;99.90
15386;DHT22;7791;47.246;9.648;2022-11-15T05:54:25;1.50;99.90
15386;DHT22;7791;47.246;9.648;2022-11-15T05:56:52;1.50;99.90
15386;DHT22;7791;47.246;9.648;2022-11-15T05:59:21;1.50;99.90
15386;DHT22;7791;47.246;9.648;2022-11-15T06:01:49;1.50;99.90
15386;DHT22;7791;47.246;9.648;2022-11-15T06:04:17;1.50;99.90
15386;DHT22;7791;47.246;9.648;2022-11-15T06:06:46;1.40;99.90
15386;DHT22;7791;47.246;9.648;2022-11-15T06:09:13;1.40;99.90
15386;DHT22;7791;47.246;9.648;2022-11-15T06:11:39;1.40;99.90
15386;DHT22;7791;47.246;9.648;2022-11-15T06:14:05;1.30;99.90
15386;DHT22;7791;47.246;9.648;2022-11-15T06:16:32;1.30;99.90
15386;DHT22;7791;47.246;9.648;2022-11-15T06:19:00;1.30;99.90
15386;DHT22;7791;47.246;9.648;2022-11-15T06:21:29;1.30;99.90
15386;DHT22;7791;47.246;9.648;2022-11-15T06:23:57;1.40;99.90
15386;DHT22;7791;47.246;9.648;2022-11-15T06:26:26;1.40;99.90
15386;DHT22;7791;47.246;9.648;2022-11-15T06:28:56;1.50;99.90
15386;DHT22;7791;47.246;9.648;2022-11-15T06:31:25;1.50;99.90
15386;DHT22;7791;47.246;9.648;2022-11-15T06:33:53;1.60;99.90
15386;DHT22;7791;47.246;9.648;2022-11-15T06:36:19;1.50;99.90
15386;DHT22;7791;47.246;9.648;2022-11-15T06:38:47;1.40;99.90
15386;DHT22;7791;47.246;9.648;2022-11-15T06:41:16;1.40;99.90
15386;DHT22;7791;47.246;9.648;2022-11-15T06:43:43;1.40;99.90
15386;DHT22;7791;47.246;9.648;2022-11-15T06:46:19;1.40;99.90
15386;DHT22;7791;47.246;9.648;2022-11-15T06:48:50;1.50;99.90
15386;DHT22;7791;47.246;9.648;2022-11-15T06:51:16;1.40;99.90
15386;DHT22;7791;47.246;9.648;2022-11-15T06:53:43;1.50;99.90
15386;DHT22;7791;47.246;9.648;2022-11-15T06:56:10;1.50;99.90
15386;DHT22;7791;47.246;9.648;2022-11-15T06:58:40;1.60;99.90
15386;DHT22;7791;47.246;9.648;2022-11-15T07:01:08;1.70;99.90
15386;DHT22;7791;47.246;9.648;2022-11-15T07:03:36;1.70;99.90
15386;DHT22;7791;47.246;9.648;2022-11-15T07:06:03;1.70;99.90
15386;DHT22;7791;47.246;9.648;2022-11-15T07:08:31;1.60;99.90
15386;DHT22;7791;47.246;9.648;2022-11-15T07:11:00;1.70;99.90
15386;DHT22;7791;47.246;9.648;2022-11-15T07:13:29;1.80;99.90
15386;DHT22;7791;47.246;9.648;2022-11-15T07:15:58;1.90;99.90
15386;DHT22;7791;47.246;9.648;2022-11-15T07:18:24;1.90;99.90
15386;DHT22;7791;47.246;9.648;2022-11-15T07:20:52;1.90;99.90
15386;DHT22;7791;47.246;9.648;2022-11-15T07:23:18;1.90;99.90
15386;DHT22;7791;47.246;9.648;2022-11-15T07:25:46;1.80;99.90
15386;DHT22;7791;47.246;9.648;2022-11-15T07:28:14;1.80;99.90
15386;DHT22;7791;47.246;9.648;2022-11-15T07:30:43;1.90;99.90
15386;DHT22;7791;47.246;9.648;2022-11-15T07:33:11;1.80;99.90
15386;DHT22;7791;47.246;9.648;2022-11-15T07:35:38;2.10;99.90
15386;DHT22;7791;47.246;9.648;2022-11-15T07:38:06;3.00;99.90
15386;DHT22;7791;47.246;9.648;2022-11-15T07:40:35;4.30;99.90
15386;DHT22;7791;47.246;9.648;2022-11-15T07:43:06;5.50;99.90
15386;DHT22;7791;47.246;9.648;2022-11-15T07:45:34;6.40;99.90
15386;DHT22;7791;47.246;9.648;2022-11-15T07:48:09;7.40;99.90
15386;DHT22;7791;47.246;9.648;2022-11-15T07:50:40;7.90;99.90
15386;DHT22;7791;47.246;9.648;2022-11-15T07:53:08;8.40;99.90
15386;DHT22;7791;47.246;9.648;2022-11-15T07:55:34;9.00;99.90
15386;DHT22;7791;47.246;9.648;2022-11-15T07:58:02;9.80;99.90
15386;DHT22;7791;47.246;9.648;2022-11-15T08:00:28;10.40;99.90
15386;DHT22;7791;47.246;9.648;2022-11-15T08:03:04;10.30;99.90
15386;DHT22;7791;47.246;9.648;2022-11-15T08:05:33;9.40;99.90
15386;DHT22;7791;47.246;9.648;2022-11-15T08:08:00;8.40;99.90
15386;DHT22;7791;47.246;9.648;2022-11-15T08:10:28;7.30;99.90
15386;DHT22;7791;47.246;9.648;2022-11-15T08:13:02;6.80;99.90
15386;DHT22;7791;47.246;9.648;2022-11-15T08:15:29;6.30;99.90
15386;DHT22;7791;47.246;9.648;2022-11-15T08:17:56;6.20;99.90
15386;DHT22;7791;47.246;9.648;2022-11-15T08:20:26;7.00;99.90
15386;DHT22;7791;47.246;9.648;2022-11-15T08:22:57;8.50;99.90
15386;DHT22;7791;47.246;9.648;2022-11-15T08:25:23;9.90;99.90
15386;DHT22;7791;47.246;9.648;2022-11-15T08:27:52;10.30;99.90
15386;DHT22;7791;47.246;9.648;2022-11-15T08:30:18;9.70;99.90
15386;DHT22;7791;47.246;9.648;2022-11-15T08:32:46;9.60;99.90
15386;DHT22;7791;47.246;9.648;2022-11-15T08:35:14;10.00;99.90
15386;DHT22;7791;47.246;9.648;2022-11-15T08:37:40;10.70;99.90
15386;DHT22;7791;47.246;9.648;2022-11-15T08:40:09;10.90;99.90
15386;DHT22;7791;47.246;9.648;2022-11-15T08:42:35;10.80;99.90
15386;DHT22;7791;47.246;9.648;2022-11-15T08:45:05;10.80;99.90
15386;DHT22;7791;47.246;9.648;2022-11-15T08:47:31;11.40;99.90
15386;DHT22;7791;47.246;9.648;2022-11-15T08:49:57;12.10;99.90
15386;DHT22;7791;47.246;9.648;2022-11-15T08:52:25;12.70;99.90
15386;DHT22;7791;47.246;9.648;2022-11-15T08:54:51;13.00;99.90
15386;DHT22;7791;47.246;9.648;2022-11-15T08:57:20;13.40;99.90
15386;DHT22;7791;47.246;9.648;2022-11-15T08:59:47;13.50;99.90
15386;DHT22;7791;47.246;9.648;2022-11-15T09:02:14;14.00;99.90
15386;DHT22;7791;47.246;9.648;2022-11-15T09:04:40;14.00;99.90
15386;DHT22;7791;47.246;9.648;2022-11-15T09:07:07;13.90;99.90
15386;DHT22;7791;47.246;9.648;2022-11-15T09:09:34;14.30;99.90
15386;DHT22;7791;47.246;9.648;2022-11-15T09:12:00;14.90;99.90
15386;DHT22;7791;47.246;9.648;2022-11-15T09:14:28;15.70;99.90
15386;DHT22;7791;47.246;9.648;2022-11-15T09:16:55;16.40;99.90
15386;DHT22;7791;47.246;9.648;2022-11-15T09:19:21;16.90;99.90
15386;DHT22;7791;47.246;9.648;2022-11-15T09:21:48;17.20;99.90
15386;DHT22;7791;47.246;9.648;2022-11-15T09:24:15;17.30;99.90
15386;DHT22;7791;47.246;9.648;2022-11-15T09:26:41;17.70;99.90
15386;DHT22;7791;47.246;9.648;2022-11-15T09:29:07;18.10;99.90
15386;DHT22;7791;47.246;9.648;2022-11-15T09:31:42;18.50;99.90
15386;DHT22;7791;47.246;9.648;2022-11-15T09:34:09;18.90;99.90
15386;DHT22;7791;47.246;9.648;2022-11-15T09:36:38;19.00;99.90
15386;DHT22;7791;47.246;9.648;2022-11-15T09:39:05;19.00;99.90
15386;DHT22;7791;47.246;9.648;2022-11-15T09:44:43;18.60;99.90
15386;DHT22;7791;47.246;9.648;2022-11-15T09:47:38;18.70;99.90
15386;DHT22;7791;47.246;9.648;2022-11-15T09:50:09;19.10;99.90
15386;DHT22;7791;47.246;9.648;2022-11-15T09:52:37;19.70;99.90
15386;DHT22;7791;47.246;9.648;2022-11-15T09:55:07;20.10;99.90
15386;DHT22;7791;47.246;9.648;2022-11-15T09:57:39;20.30;99.00
15386;DHT22;7791;47.246;9.648;2022-11-15T10:00:13;20.30;98.70
15386;DHT22;7791;47.246;9.648;2022-11-15T10:03:08;20.30;98.70
15386;DHT22;7791;47.246;9.648;2022-11-15T10:05:43;20.00;98.60
15386;DHT22;7791;47.246;9.648;2022-11-15T10:08:31;19.80;98.40
15386;DHT22;7791;47.246;9.648;2022-11-15T10:10:59;19.20;98.90
15386;DHT22;7791;47.246;9.648;2022-11-15T10:13:35;17.10;98.80
15386;DHT22;7791;47.246;9.648;2022-11-15T10:16:29;15.60;99.90
15386;DHT22;7791;47.246;9.648;2022-11-15T10:19:10;14.90;99.90
15386;DHT22;7791;47.246;9.648;2022-11-15T10:21:49;14.50;99.90
15386;DHT22;7791;47.246;9.648;2022-11-15T10:24:25;14.30;99.90
15386;DHT22;7791;47.246;9.648;2022-11-15T10:26:51;14.20;99.90
15386;DHT22;7791;47.246;9.648;2022-11-15T10:29:22;14.30;99.90
15386;DHT22;7791;47.246;9.648;2022-11-15T10:31:49;14.50;99.90
15386;DHT22;7791;47.246;9.648;2022-11-15T10:34:23;15.00;99.90
15386;DHT22;7791;47.246;9.648;2022-11-15T10:36:55;15.10;99.90
15386;DHT22;7791;47.246;9.648;2022-11-15T10:39:21;14.90;99.90
15386;DHT22;7791;47.246;9.648;2022-11-15T10:41:52;15.00;99.90
15386;DHT22;7791;47.246;9.648;2022-11-15T10:44:25;14.80;99.90
15386;DHT22;7791;47.246;9.648;2022-11-15T10:47:21;14.60;99.90
15386;DHT22;7791;47.246;9.648;2022-11-15T10:49:57;14.50;99.90
15386;DHT22;7791;47.246;9.648;2022-11-15T10:52:24;14.90;99.90
15386;DHT22;7791;47.246;9.648;2022-11-15T10:54:54;14.40;99.90
15386;DHT22;7791;47.246;9.648;2022-11-15T10:57:26;14.20;99.90
15386;DHT22;7791;47.246;9.648;2022-11-15T10:59:56;13.90;99.90
15386;DHT22;7791;47.246;9.648;2022-11-15T11:02:32;14.10;99.90
15386;DHT22;7791;47.246;9.648;2022-11-15T11:05:03;14.30;99.90
15386;DHT22;7791;47.246;9.648;2022-11-15T11:07:34;14.50;99.90
15386;DHT22;7791;47.246;9.648;2022-11-15T11:10:05;14.90;99.90
15386;DHT22;7791;47.246;9.648;2022-11-15T11:12:47;14.80;99.90
15386;DHT22;7791;47.246;9.648;2022-11-15T11:15:16;15.00;99.90
15386;DHT22;7791;47.246;9.648;2022-11-15T11:17:53;15.00;99.90
15386;DHT22;7791;47.246;9.648;2022-11-15T11:20:28;14.70;99.90
15386;DHT22;7791;47.246;9.648;2022-11-15T11:23:14;14.60;99.90
15386;DHT22;7791;47.246;9.648;2022-11-15T11:25:55;14.40;99.90
15386;DHT22;7791;47.246;9.648;2022-11-15T11:28:33;14.50;99.90
15386;DHT22;7791;47.246;9.648;2022-11-15T11:31:14;14.10;99.90
15386;DHT22;7791;47.246;9.648;2022-11-15T11:33:48;13.90;99.90
15386;DHT22;7791;47.246;9.648;2022-11-15T11:36:25;13.90;99.90
15386;DHT22;7791;47.246;9.648;2022-11-15T11:38:58;13.60;99.90
15386;DHT22;7791;47.246;9.648;2022-11-15T11:41:47;13.40;99.90
15386;DHT22;7791;47.246;9.648;2022-11-15T11:44:33;13.30;99.90
15386;DHT22;7791;47.246;9.648;2022-11-15T11:47:14;13.10;99.90
15386;DHT22;7791;47.246;9.648;2022-11-15T11:49:46;13.20;99.90
15386;DHT22;7791;47.246;9.648;2022-11-15T11:52:20;13.20;99.90
15386;DHT22;7791;47.246;9.648;2022-11-15T11:55:03;13.30;99.90
15386;DHT22;7791;47.246;9.648;2022-11-15T11:57:43;13.30;99.90
15386;DHT22;7791;47.246;9.648;2022-11-15T12:00:19;13.50;99.90
15386;DHT22;7791;47.246;9.648;2022-11-15T12:03:03;13.30;99.90
15386;DHT22;7791;47.246;9.648;2022-11-15T12:05:35;13.20;99.90
15386;DHT22;7791;47.246;9.648;2022-11-15T12:08:23;13.10;99.90
15386;DHT22;7791;47.246;9.648;2022-11-15T12:11:06;12.90;99.90
15386;DHT22;7791;47.246;9.648;2022-11-15T12:13:36;12.80;99.90
15386;DHT22;7791;47.246;9.648;2022-11-15T12:16:10;12.80;99.90
15386;DHT22;7791;47.246;9.648;2022-11-15T12:18:38;12.80;99.90
15386;DHT22;7791;47.246;9.648;2022-11-15T12:21:08;13.00;99.90
15386;DHT22;7791;47.246;9.648;2022-11-15T12:23:46;12.90;99.90
15386;DHT22;7791;47.246;9.648;2022-11-15T12:26:20;13.10;99.90
15386;DHT22;7791;47.246;9.648;2022-11-15T12:28:55;13.10;99.90
15386;DHT22;7791;47.246;9.648;2022-11-15T12:31:24;13.30;99.90
15386;DHT22;7791;47.246;9.648;2022-11-15T12:33:57;13.20;99.90
15386;DHT22;7791;47.246;9.648;2022-11-15T12:36:37;13.30;99.90
15386;DHT22;7791;47.246;9.648;2022-11-15T12:39:06;13.40;99.90
15386;DHT22;7791;47.246;9.648;2022-11-15T12:41:42;13.50;99.90
15386;DHT22;7791;47.246;9.648;2022-11-15T12:44:12;13.40;99.90
15386;DHT22;7791;47.246;9.648;2022-11-15T12:47:00;13.40;99.90
15386;DHT22;7791;47.246;9.648;2022-11-15T12:49:45;13.20;99.90
15386;DHT22;7791;47.246;9.648;2022-11-15T12:52:19;13.00;99.90
15386;DHT22;7791;47.246;9.648;2022-11-15T12:57:48;12.90;99.90
15386;DHT22;7791;47.246;9.648;2022-11-15T13:03:24;13.20;99.90
15386;DHT22;7791;47.246;9.648;2022-11-15T13:06:05;12.80;99.90
15386;DHT22;7791;47.246;9.648;2022-11-15T13:08:48;12.80;99.90
15386;DHT22;7791;47.246;9.648;2022-11-15T13:11:46;12.70;99.90
15386;DHT22;7791;47.246;9.648;2022-11-15T13:14:52;12.40;99.90
15386;DHT22;7791;47.246;9.648;2022-11-15T13:17:35;12.10;99.90
15386;DHT22;7791;47.246;9.648;2022-11-15T13:20:21;12.00;99.90
15386;DHT22;7791;47.246;9.648;2022-11-15T13:22:50;11.90;99.90
15386;DHT22;7791;47.246;9.648;2022-11-15T13:28:18;11.50;99.90
15386;DHT22;7791;47.246;9.648;2022-11-15T13:30:55;11.50;99.90
15386;DHT22;7791;47.246;9.648;2022-11-15T13:33:24;11.40;99.90
15386;DHT22;7791;47.246;9.648;2022-11-15T13:35:56;11.40;99.90
15386;DHT22;7791;47.246;9.648;2022-11-15T13:38:29;11.60;99.90
15386;DHT22;7791;47.246;9.648;2022-11-15T13:40:57;11.80;99.90
15386;DHT22;7791;47.246;9.648;2022-11-15T13:43:32;12.00;99.90
15386;DHT22;7791;47.246;9.648;2022-11-15T13:46:15;12.00;99.90
15386;DHT22;7791;47.246;9.648;2022-11-15T13:48:44;12.00;99.90
15386;DHT22;7791;47.246;9.648;2022-11-15T13:51:17;12.00;99.90
15386;DHT22;7791;47.246;9.648;2022-11-15T13:53:50;12.10;99.90
15386;DHT22;7791;47.246;9.648;2022-11-15T13:56:23;12.00;99.90
15386;DHT22;7791;47.246;9.648;2022-11-15T13:58:52;12.10;99.90
15386;DHT22;7791;47.246;9.648;2022-11-15T14:01:21;12.20;99.90
15386;DHT22;7791;47.246;9.648;2022-11-15T14:03:51;12.30;99.90
15386;DHT22;7791;47.246;9.648;2022-11-15T14:06:19;12.30;99.90
15386;DHT22;7791;47.246;9.648;2022-11-15T14:09:15;12.20;99.90
15386;DHT22;7791;47.246;9.648;2022-11-15T14:11:50;12.20;99.90
15386;DHT22;7791;47.246;9.648;2022-11-15T14:14:20;12.30;99.90
15386;DHT22;7791;47.246;9.648;2022-11-15T14:16:52;12.30;99.90
15386;DHT22;7791;47.246;9.648;2022-11-15T14:19:40;12.30;99.90
15386;DHT22;7791;47.246;9.648;2022-11-15T14:22:16;12.30;99.90
15386;DHT22;7791;47.246;9.648;2022-11-15T14:24:46;12.30;99.90
15386;DHT22;7791;47.246;9.648;2022-11-15T14:27:22;12.20;99.90
15386;DHT22;7791;47.246;9.648;2022-11-15T14:29:50;12.20;99.90
15386;DHT22;7791;47.246;9.648;2022-11-15T14:32:18;12.20;99.90
15386;DHT22;7791;47.246;9.648;2022-11-15T14:34:45;12.20;99.90
15386;DHT22;7791;47.246;9.648;2022-11-15T14:37:24;12.10;99.90
15386;DHT22;7791;47.246;9.648;2022-11-15T14:39:52;12.10;99.90
15386;DHT22;7791;47.246;9.648;2022-11-15T14:42:18;12.10;99.90
15386;DHT22;7791;47.246;9.648;2022-11-15T14:44:45;12.10;99.90
15386;DHT22;7791;47.246;9.648;2022-11-15T14:47:12;12.10;99.90
15386;DHT22;7791;47.246;9.648;2022-11-15T14:49:39;12.10;99.90
15386;DHT22;7791;47.246;9.648;2022-11-15T14:52:23;12.00;99.90
15386;DHT22;7791;47.246;9.648;2022-11-15T14:54:49;12.10;99.90
15386;DHT22;7791;47.246;9.648;2022-11-15T14:57:18;12.00;99.90
15386;DHT22;7791;47.246;9.648;2022-11-15T14:59:46;11.90;99.90
15386;DHT22;7791;47.246;9.648;2022-11-15T15:02:16;11.90;99.90
15386;DHT22;7791;47.246;9.648;2022-11-15T15:04:47;11.80;99.90
15386;DHT22;7791;47.246;9.648;2022-11-15T15:07:16;11.70;99.90
15386;DHT22;7791;47.246;9.648;2022-11-15T15:09:47;11.60;99.90
15386;DHT22;7791;47.246;9.648;2022-11-15T15:12:16;11.50;99.90
15386;DHT22;7791;47.246;9.648;2022-11-15T15:14:42;11.50;99.90
15386;DHT22;7791;47.246;9.648;2022-11-15T15:17:13;11.50;99.90
15386;DHT22;7791;47.246;9.648;2022-11-15T15:19:40;11.40;99.90
15386;DHT22;7791;47.246;9.648;2022-11-15T15:22:14;11.40;99.90
15386;DHT22;7791;47.246;9.648;2022-11-15T15:24:40;11.40;99.90
15386;DHT22;7791;47.246;9.648;2022-11-15T15:27:09;11.50;99.90
15386;DHT22;7791;47.246;9.648;2022-11-15T15:29:35;11.50;99.90
15386;DHT22;7791;47.246;9.648;2022-11-15T15:32:15;11.50;99.90
15386;DHT22;7791;47.246;9.648;2022-11-15T15:34:42;11.50;99.90
15386;DHT22;7791;47.246;9.648;2022-11-15T15:37:21;11.40;99.90
15386;DHT22;7791;47.246;9.648;2022-11-15T15:39:51;11.40;99.90
15386;DHT22;7791;47.246;9.648;2022-11-15T15:42:19;11.30;99.90
15386;DHT22;7791;47.246;9.648;2022-11-15T15:44:48;11.30;99.90
15386;DHT22;7791;47.246;9.648;2022-11-15T15:47:16;11.20;99.90
15386;DHT22;7791;47.246;9.648;2022-11-15T15:49:44;11.30;99.90
15386;DHT22;7791;47.246;9.648;2022-11-15T15:52:13;11.30;99.90
15386;DHT22;7791;47.246;9.648;2022-11-15T15:54:40;11.30;99.90
15386;DHT22;7791;47.246;9.648;2022-11-15T15:57:10;11.30;99.90
15386;DHT22;7791;47.246;9.648;2022-11-15T15:59:39;11.40;99.90
15386;DHT22;7791;47.246;9.648;2022-11-15T16:02:08;11.40;99.90
15386;DHT22;7791;47.246;9.648;2022-11-15T16:04:38;11.40;99.90
15386;DHT22;7791;47.246;9.648;2022-11-15T16:07:07;11.30;99.90
15386;DHT22;7791;47.246;9.648;2022-11-15T16:09:41;11.40;99.90
15386;DHT22;7791;47.246;9.648;2022-11-15T16:12:17;11.40;99.90
15386;DHT22;7791;47.246;9.648;2022-11-15T16:14:47;11.40;99.90
15386;DHT22;7791;47.246;9.648;2022-11-15T16:17:18;11.40;99.90
15386;DHT22;7791;47.246;9.648;2022-11-15T16:19:45;11.40;99.90
15386;DHT22;7791;47.246;9.648;2022-11-15T16:22:12;11.40;99.90
15386;DHT22;7791;47.246;9.648;2022-11-15T16:24:40;11.40;99.90
15386;DHT22;7791;47.246;9.648;2022-11-15T16:27:11;11.40;99.90
15386;DHT22;7791;47.246;9.648;2022-11-15T16:29:39;11.50;99.90
15386;DHT22;7791;47.246;9.648;2022-11-15T16:32:05;11.50;99.90
15386;DHT22;7791;47.246;9.648;2022-11-15T16:40:38;11.50;99.90
15386;DHT22;7791;47.246;9.648;2022-11-15T16:43:04;11.30;99.90